sensor_id;sensor_type;location;lat;lon;timestamp;pressure;altitude;pressure_sealevel;temperature;humidity
73101;BME280;61288;53.446;-2.266;2022-10-22T00:01:46;99612.91;;;13.41;94.25
73101;BME280;61288;53.446;-2.266;2022-10-22T00:04:12;99618.34;;;13.38;94.57
73101;BME280;61288;53.446;-2.266;2022-10-22T00:06:37;99625.41;;;13.36;94.72
73101;BME280;61288;53.446;-2.266;2022-10-22T00:09:03;99638.53;;;13.34;94.90
73101;BME280;61288;53.446;-2.266;2022-10-22T00:11:28;99636.97;;;13.32;95.00
73101;BME280;61288;53.446;-2.266;2022-10-22T00:13:54;99637.81;;;13.32;95.00
73101;BME280;61288;53.446;-2.266;2022-10-22T00:16:19;99644.06;;;13.29;94.82
73101;BME280;61288;53.446;-2.266;2022-10-22T00:18:45;99644.28;;;13.26;94.97
73101;BME280;61288;53.446;-2.266;2022-10-22T00:21:11;99657.28;;;13.26;94.64
73101;BME280;61288;53.446;-2.266;2022-10-22T00:23:40;99656.56;;;13.24;94.57
73101;BME280;61288;53.446;-2.266;2022-10-22T00:26:06;99654.97;;;13.22;94.61
73101;BME280;61288;53.446;-2.266;2022-10-22T00:28:32;99667.91;;;13.23;94.38
73101;BME280;61288;53.446;-2.266;2022-10-22T00:30:59;99663.50;;;13.24;94.48
73101;BME280;61288;53.446;-2.266;2022-10-22T00:33:25;99670.59;;;13.22;94.57
73101;BME280;61288;53.446;-2.266;2022-10-22T00:35:51;99666.31;;;13.21;94.55
73101;BME280;61288;53.446;-2.266;2022-10-22T00:38:17;99667.38;;;13.18;94.42
73101;BME280;61288;53.446;-2.266;2022-10-22T00:40:43;99680.47;;;13.17;94.56
73101;BME280;61288;53.446;-2.266;2022-10-22T00:43:13;99681.63;;;13.12;94.50
73101;BME280;61288;53.446;-2.266;2022-10-22T00:45:39;99677.28;;;13.13;94.47
73101;BME280;61288;53.446;-2.266;2022-10-22T00:48:19;99688.59;;;13.12;94.63
73101;BME280;61288;53.446;-2.266;2022-10-22T00:51:02;99680.06;;;13.10;94.51
73101;BME280;61288;53.446;-2.266;2022-10-22T00:53:44;99690.56;;;13.08;94.38
73101;BME280;61288;53.446;-2.266;2022-10-22T00:56:12;99692.31;;;13.08;94.22
73101;BME280;61288;53.446;-2.266;2022-10-22T00:58:41;99706.09;;;13.10;94.20
73101;BME280;61288;53.446;-2.266;2022-10-22T01:01:13;99702.72;;;13.08;94.08
73101;BME280;61288;53.446;-2.266;2022-10-22T01:03:39;99700.13;;;13.08;94.03
73101;BME280;61288;53.446;-2.266;2022-10-22T01:06:05;99707.00;;;13.09;94.00
73101;BME280;61288;53.446;-2.266;2022-10-22T01:08:47;99712.19;;;13.09;93.66
73101;BME280;61288;53.446;-2.266;2022-10-22T01:11:21;99712.19;;;13.09;93.79
73101;BME280;61288;53.446;-2.266;2022-10-22T01:13:59;99717.41;;;13.09;93.67
73101;BME280;61288;53.446;-2.266;2022-10-22T01:16:50;99720.94;;;13.08;93.53
73101;BME280;61288;53.446;-2.266;2022-10-22T01:31:14;99734.25;;;13.03;93.18
73101;BME280;61288;53.446;-2.266;2022-10-22T01:33:43;99743.81;;;13.03;93.38
73101;BME280;61288;53.446;-2.266;2022-10-22T01:36:11;99746.53;;;13.01;93.12
73101;BME280;61288;53.446;-2.266;2022-10-22T01:38:37;99748.28;;;13.00;93.18
73101;BME280;61288;53.446;-2.266;2022-10-22T01:41:04;99754.44;;;12.99;93.73
73101;BME280;61288;53.446;-2.266;2022-10-22T01:43:31;99757.13;;;12.98;93.14
73101;BME280;61288;53.446;-2.266;2022-10-22T01:45:59;99756.22;;;12.99;93.18
73101;BME280;61288;53.446;-2.266;2022-10-22T01:48:44;99757.13;;;12.98;93.19
73101;BME280;61288;53.446;-2.266;2022-10-22T01:51:43;99757.97;;;12.98;92.79
73101;BME280;61288;53.446;-2.266;2022-10-22T01:57:45;99766.81;;;12.96;92.91
73101;BME280;61288;53.446;-2.266;2022-10-22T02:00:17;99779.81;;;12.96;92.60
73101;BME280;61288;53.446;-2.266;2022-10-22T02:02:46;99765.97;;;12.95;92.52
73101;BME280;61288;53.446;-2.266;2022-10-22T02:08:05;99778.22;;;12.93;92.20
73101;BME280;61288;53.446;-2.266;2022-10-22T02:10:36;99783.44;;;12.93;92.06
73101;BME280;61288;53.446;-2.266;2022-10-22T02:13:03;99792.16;;;12.92;92.24
73101;BME280;61288;53.446;-2.266;2022-10-22T02:15:34;99790.50;;;12.91;92.14
73101;BME280;61288;53.446;-2.266;2022-10-22T02:18:05;99800.91;;;12.91;92.39
73101;BME280;61288;53.446;-2.266;2022-10-22T02:20:34;99801.84;;;12.90;92.35
73101;BME280;61288;53.446;-2.266;2022-10-22T02:23:01;99801.91;;;12.89;92.41
73101;BME280;61288;53.446;-2.266;2022-10-22T02:25:30;99805.56;;;12.86;92.27
73101;BME280;61288;53.446;-2.266;2022-10-22T02:28:18;99807.44;;;12.84;92.30
73101;BME280;61288;53.446;-2.266;2022-10-22T02:30:52;99812.63;;;12.84;92.22
73101;BME280;61288;53.446;-2.266;2022-10-22T02:33:25;99821.44;;;12.81;92.30
73101;BME280;61288;53.446;-2.266;2022-10-22T02:35:53;99829.25;;;12.81;92.60
73101;BME280;61288;53.446;-2.266;2022-10-22T02:38:20;99829.38;;;12.80;92.56
73101;BME280;61288;53.446;-2.266;2022-10-22T02:40:48;99834.56;;;12.80;92.23
73101;BME280;61288;53.446;-2.266;2022-10-22T02:43:14;99836.44;;;12.78;91.94
73101;BME280;61288;53.446;-2.266;2022-10-22T02:45:41;99837.38;;;12.77;91.79
73101;BME280;61288;53.446;-2.266;2022-10-22T02:48:07;99842.72;;;12.74;91.67
73101;BME280;61288;53.446;-2.266;2022-10-22T02:50:32;99835.88;;;12.73;91.84
73101;BME280;61288;53.446;-2.266;2022-10-22T02:52:58;99841.06;;;12.73;91.72
73101;BME280;61288;53.446;-2.266;2022-10-22T02:55:24;99842.72;;;12.74;91.63
73101;BME280;61288;53.446;-2.266;2022-10-22T02:57:49;99849.78;;;12.71;91.29
73101;BME280;61288;53.446;-2.266;2022-10-22T03:00:15;99845.44;;;12.72;91.54
73101;BME280;61288;53.446;-2.266;2022-10-22T03:02:41;99846.25;;;12.73;91.38
73101;BME280;61288;53.446;-2.266;2022-10-22T03:05:07;99861.97;;;12.71;91.00
73101;BME280;61288;53.446;-2.266;2022-10-22T03:07:32;99857.72;;;12.70;91.04
73101;BME280;61288;53.446;-2.266;2022-10-22T03:09:58;99858.53;;;12.70;91.24
73101;BME280;61288;53.446;-2.266;2022-10-22T03:12:24;99858.53;;;12.70;90.76
73101;BME280;61288;53.446;-2.266;2022-10-22T03:14:50;99870.59;;;12.71;90.96
73101;BME280;61288;53.446;-2.266;2022-10-22T03:17:15;99868.91;;;12.70;91.02
73101;BME280;61288;53.446;-2.266;2022-10-22T03:19:41;99883.78;;;12.68;90.99
73101;BME280;61288;53.446;-2.266;2022-10-22T03:22:11;99881.19;;;12.68;90.88
73101;BME280;61288;53.446;-2.266;2022-10-22T03:24:41;99892.44;;;12.69;91.10
73101;BME280;61288;53.446;-2.266;2022-10-22T03:27:09;99898.56;;;12.68;91.29
73101;BME280;61288;53.446;-2.266;2022-10-22T03:29:37;99892.63;;;12.66;91.42
73101;BME280;61288;53.446;-2.266;2022-10-22T03:32:04;99905.69;;;12.64;91.65
73101;BME280;61288;53.446;-2.266;2022-10-22T03:34:30;99908.28;;;12.64;92.02
73101;BME280;61288;53.446;-2.266;2022-10-22T03:36:58;99916.41;;;12.60;92.26
73101;BME280;61288;53.446;-2.266;2022-10-22T03:39:25;99910.53;;;12.56;92.93
73101;BME280;61288;53.446;-2.266;2022-10-22T03:41:52;99915.81;;;12.54;93.30
73101;BME280;61288;53.446;-2.266;2022-10-22T03:44:18;99916.84;;;12.52;93.66
73101;BME280;61288;53.446;-2.266;2022-10-22T03:46:45;99917.06;;;12.49;93.77
73101;BME280;61288;53.446;-2.266;2022-10-22T03:49:10;99926.72;;;12.47;93.83
73101;BME280;61288;53.446;-2.266;2022-10-22T03:51:36;99931.06;;;12.46;94.28
73101;BME280;61288;53.446;-2.266;2022-10-22T03:54:03;99936.34;;;12.45;94.21
73101;BME280;61288;53.446;-2.266;2022-10-22T03:56:29;99945.91;;;12.44;94.46
73101;BME280;61288;53.446;-2.266;2022-10-22T03:58:56;99950.16;;;12.45;94.30
73101;BME280;61288;53.446;-2.266;2022-10-22T04:01:22;99950.28;;;12.44;94.89
73101;BME280;61288;53.446;-2.266;2022-10-22T04:03:48;99955.56;;;12.42;94.93
73101;BME280;61288;53.446;-2.266;2022-10-22T04:06:14;99963.44;;;12.40;94.66
73101;BME280;61288;53.446;-2.266;2022-10-22T04:08:42;99952.09;;;12.41;94.50
73101;BME280;61288;53.446;-2.266;2022-10-22T04:11:09;99963.53;;;12.39;94.83
73101;BME280;61288;53.446;-2.266;2022-10-22T04:13:35;99962.69;;;12.38;95.08
73101;BME280;61288;53.446;-2.266;2022-10-22T04:16:11;99972.34;;;12.36;94.63
73101;BME280;61288;53.446;-2.266;2022-10-22T04:18:38;99975.78;;;12.37;94.85
73101;BME280;61288;53.446;-2.266;2022-10-22T04:21:05;99984.56;;;12.34;94.86
73101;BME280;61288;53.446;-2.266;2022-10-22T04:23:32;99988.03;;;12.35;95.07
73101;BME280;61288;53.446;-2.266;2022-10-22T04:25:58;99981.91;;;12.36;95.13
73101;BME280;61288;53.446;-2.266;2022-10-22T04:28:23;99992.28;;;12.36;95.13
73101;BME280;61288;53.446;-2.266;2022-10-22T04:36:32;99993.47;;;12.30;94.30
73101;BME280;61288;53.446;-2.266;2022-10-22T04:38:59;100000.72;;;12.25;93.10
73101;BME280;61288;53.446;-2.266;2022-10-22T04:41:45;100004.59;;;12.18;91.99
73101;BME280;61288;53.446;-2.266;2022-10-22T04:44:10;100007.72;;;12.08;91.57
73101;BME280;61288;53.446;-2.266;2022-10-22T04:46:36;100012.16;;;12.06;91.70
73101;BME280;61288;53.446;-2.266;2022-10-22T04:49:01;100009.75;;;12.03;91.30
73101;BME280;61288;53.446;-2.266;2022-10-22T04:51:31;100026.50;;;11.97;91.18
73101;BME280;61288;53.446;-2.266;2022-10-22T04:53:56;100022.50;;;11.92;90.88
73101;BME280;61288;53.446;-2.266;2022-10-22T04:56:26;100019.22;;;11.88;90.43
73101;BME280;61288;53.446;-2.266;2022-10-22T04:58:58;100025.50;;;11.84;90.23
73101;BME280;61288;53.446;-2.266;2022-10-22T05:01:26;100034.56;;;11.77;89.66
73101;BME280;61288;53.446;-2.266;2022-10-22T05:03:53;100031.41;;;11.72;88.97
73101;BME280;61288;53.446;-2.266;2022-10-22T05:06:20;100038.53;;;11.68;88.70
73101;BME280;61288;53.446;-2.266;2022-10-22T05:08:47;100039.63;;;11.64;88.28
73101;BME280;61288;53.446;-2.266;2022-10-22T05:11:18;100040.72;;;11.60;87.83
73101;BME280;61288;53.446;-2.266;2022-10-22T05:13:44;100038.28;;;11.56;88.16
73101;BME280;61288;53.446;-2.266;2022-10-22T05:16:11;100048.84;;;11.53;88.07
73101;BME280;61288;53.446;-2.266;2022-10-22T05:18:38;100049.00;;;11.50;88.14
73101;BME280;61288;53.446;-2.266;2022-10-22T05:21:11;100050.19;;;11.45;88.10
73101;BME280;61288;53.446;-2.266;2022-10-22T05:23:37;100058.19;;;11.40;88.78
73101;BME280;61288;53.446;-2.266;2022-10-22T05:26:05;100060.03;;;11.38;88.34
73101;BME280;61288;53.446;-2.266;2022-10-22T05:28:31;100065.41;;;11.35;88.26
73101;BME280;61288;53.446;-2.266;2022-10-22T05:30:58;100064.00;;;11.29;88.24
73101;BME280;61288;53.446;-2.266;2022-10-22T05:33:25;100076.22;;;11.27;88.05
73101;BME280;61288;53.446;-2.266;2022-10-22T05:35:51;100085.91;;;11.23;88.29
73101;BME280;61288;53.446;-2.266;2022-10-22T05:38:17;100086.13;;;11.19;87.69
73101;BME280;61288;53.446;-2.266;2022-10-22T05:40:44;100082.03;;;11.15;86.99
73101;BME280;61288;53.446;-2.266;2022-10-22T05:43:10;100088.28;;;11.10;87.32
73101;BME280;61288;53.446;-2.266;2022-10-22T05:45:40;100090.28;;;11.05;87.44
73101;BME280;61288;53.446;-2.266;2022-10-22T05:48:07;100093.22;;;10.99;86.36
73101;BME280;61288;53.446;-2.266;2022-10-22T05:50:37;100103.00;;;10.94;86.48
73101;BME280;61288;53.446;-2.266;2022-10-22T05:53:04;100104.78;;;10.92;86.65
73101;BME280;61288;53.446;-2.266;2022-10-22T05:55:34;100119.84;;;10.85;85.88
73101;BME280;61288;53.446;-2.266;2022-10-22T05:58:05;100114.81;;;10.82;87.02
73101;BME280;61288;53.446;-2.266;2022-10-22T06:00:31;100120.06;;;10.80;86.77
73101;BME280;61288;53.446;-2.266;2022-10-22T06:02:58;100115.91;;;10.78;86.60
73101;BME280;61288;53.446;-2.266;2022-10-22T06:05:24;100116.28;;;10.70;85.84
73101;BME280;61288;53.446;-2.266;2022-10-22T06:07:50;100131.06;;;10.68;85.31
73101;BME280;61288;53.446;-2.266;2022-10-22T06:10:17;100136.25;;;10.68;85.54
73101;BME280;61288;53.446;-2.266;2022-10-22T06:12:45;100139.66;;;10.68;85.64
73101;BME280;61288;53.446;-2.266;2022-10-22T06:15:12;100143.25;;;10.66;86.34
73101;BME280;61288;53.446;-2.266;2022-10-22T06:17:37;100151.03;;;10.66;86.93
73101;BME280;61288;53.446;-2.266;2022-10-22T06:20:03;100156.13;;;10.67;86.49
73101;BME280;61288;53.446;-2.266;2022-10-22T06:22:30;100156.13;;;10.67;85.83
73101;BME280;61288;53.446;-2.266;2022-10-22T06:24:55;100160.38;;;10.68;86.52
73101;BME280;61288;53.446;-2.266;2022-10-22T06:27:21;100155.22;;;10.68;85.51
73101;BME280;61288;53.446;-2.266;2022-10-22T06:29:47;100154.28;;;10.69;85.86
73101;BME280;61288;53.446;-2.266;2022-10-22T06:32:13;100151.84;;;10.66;85.10
73101;BME280;61288;53.446;-2.266;2022-10-22T06:34:38;100158.03;;;10.64;85.92
73101;BME280;61288;53.446;-2.266;2022-10-22T06:37:04;100158.19;;;10.61;85.93
73101;BME280;61288;53.446;-2.266;2022-10-22T06:39:30;100161.63;;;10.61;85.91
73101;BME280;61288;53.446;-2.266;2022-10-22T06:41:55;100170.44;;;10.57;86.45
73101;BME280;61288;53.446;-2.266;2022-10-22T06:44:21;100175.78;;;10.54;85.86
73101;BME280;61288;53.446;-2.266;2022-10-22T06:46:50;100175.03;;;10.52;86.91
73101;BME280;61288;53.446;-2.266;2022-10-22T06:49:17;100183.00;;;10.47;86.40
73101;BME280;61288;53.446;-2.266;2022-10-22T06:51:43;100185.00;;;10.42;86.22
73101;BME280;61288;53.446;-2.266;2022-10-22T06:54:09;100185.00;;;10.42;86.24
73101;BME280;61288;53.446;-2.266;2022-10-22T06:56:36;100185.03;;;10.40;86.17
73101;BME280;61288;53.446;-2.266;2022-10-22T06:59:02;100188.41;;;10.43;86.34
73101;BME280;61288;53.446;-2.266;2022-10-22T07:01:31;100196.16;;;10.43;86.70
73101;BME280;61288;53.446;-2.266;2022-10-22T07:03:58;100202.06;;;10.46;86.88
73101;BME280;61288;53.446;-2.266;2022-10-22T07:06:25;100212.25;;;10.49;86.79
73101;BME280;61288;53.446;-2.266;2022-10-22T07:08:53;100218.31;;;10.50;86.80
73101;BME280;61288;53.446;-2.266;2022-10-22T07:11:28;100216.47;;;10.52;86.54
73101;BME280;61288;53.446;-2.266;2022-10-22T07:13:56;100217.22;;;10.54;86.48
73101;BME280;61288;53.446;-2.266;2022-10-22T07:16:22;100224.09;;;10.55;86.61
73101;BME280;61288;53.446;-2.266;2022-10-22T07:18:48;100225.78;;;10.56;86.49
73101;BME280;61288;53.446;-2.266;2022-10-22T07:21:16;100237.72;;;10.59;85.87
73101;BME280;61288;53.446;-2.266;2022-10-22T07:23:42;100243.75;;;10.59;85.88
73101;BME280;61288;53.446;-2.266;2022-10-22T07:26:11;100240.31;;;10.59;86.19
73101;BME280;61288;53.446;-2.266;2022-10-22T07:28:37;100251.59;;;10.58;87.38
73101;BME280;61288;53.446;-2.266;2022-10-22T07:31:09;100268.13;;;10.55;87.09
73101;BME280;61288;53.446;-2.266;2022-10-22T07:33:35;100257.91;;;10.52;86.62
73101;BME280;61288;53.446;-2.266;2022-10-22T07:36:03;100262.34;;;10.50;86.99
73101;BME280;61288;53.446;-2.266;2022-10-22T07:38:30;100265.84;;;10.49;86.60
73101;BME280;61288;53.446;-2.266;2022-10-22T07:40:56;100271.06;;;10.47;87.31
73101;BME280;61288;53.446;-2.266;2022-10-22T07:43:22;100271.94;;;10.48;86.81
73101;BME280;61288;53.446;-2.266;2022-10-22T07:45:48;100278.78;;;10.49;86.79
73101;BME280;61288;53.446;-2.266;2022-10-22T07:48:15;100277.16;;;10.46;87.32
73101;BME280;61288;53.446;-2.266;2022-10-22T07:50:40;100278.03;;;10.47;86.56
73101;BME280;61288;53.446;-2.266;2022-10-22T07:53:07;100291.88;;;10.46;87.23
73101;BME280;61288;53.446;-2.266;2022-10-22T07:55:33;100285.91;;;10.44;86.54
73101;BME280;61288;53.446;-2.266;2022-10-22T07:58:00;100295.25;;;10.48;86.43
73101;BME280;61288;53.446;-2.266;2022-10-22T08:00:25;100295.91;;;10.51;86.13
73101;BME280;61288;53.446;-2.266;2022-10-22T08:02:51;100302.72;;;10.54;86.71
73101;BME280;61288;53.446;-2.266;2022-10-22T08:05:17;100307.66;;;10.59;85.52
73101;BME280;61288;53.446;-2.266;2022-10-22T08:07:42;100303.97;;;10.64;85.49
73101;BME280;61288;53.446;-2.266;2022-10-22T08:10:09;100313.25;;;10.68;84.67
73101;BME280;61288;53.446;-2.266;2022-10-22T08:12:35;100312.91;;;10.76;85.16
73101;BME280;61288;53.446;-2.266;2022-10-22T08:15:01;100324.81;;;10.80;84.98
73101;BME280;61288;53.446;-2.266;2022-10-22T08:17:27;100323.88;;;10.81;84.65
73101;BME280;61288;53.446;-2.266;2022-10-22T08:19:53;100326.13;;;10.89;84.48
73101;BME280;61288;53.446;-2.266;2022-10-22T08:22:19;100339.56;;;10.97;84.30
73101;BME280;61288;53.446;-2.266;2022-10-22T08:24:44;100343.53;;;11.05;83.59
73101;BME280;61288;53.446;-2.266;2022-10-22T08:27:10;100343.25;;;11.11;83.86
73101;BME280;61288;53.446;-2.266;2022-10-22T08:29:36;100350.72;;;11.17;83.63
73101;BME280;61288;53.446;-2.266;2022-10-22T08:32:04;100350.25;;;11.26;82.42
73101;BME280;61288;53.446;-2.266;2022-10-22T08:34:30;100349.97;;;11.33;82.48
73101;BME280;61288;53.446;-2.266;2022-10-22T08:36:55;100362.34;;;11.45;82.06
73101;BME280;61288;53.446;-2.266;2022-10-22T08:39:21;100359.44;;;11.51;81.51
73101;BME280;61288;53.446;-2.266;2022-10-22T08:41:58;100361.72;;;11.58;81.20
73101;BME280;61288;53.446;-2.266;2022-10-22T08:44:37;100359.94;;;11.58;80.53
73101;BME280;61288;53.446;-2.266;2022-10-22T08:50:14;100364.22;;;11.77;80.30
73101;BME280;61288;53.446;-2.266;2022-10-22T08:52:43;100370.44;;;11.90;79.71
73101;BME280;61288;53.446;-2.266;2022-10-22T08:55:14;100372.13;;;11.91;78.64
73101;BME280;61288;53.446;-2.266;2022-10-22T09:00:20;100391.00;;;12.12;78.98
73101;BME280;61288;53.446;-2.266;2022-10-22T09:03:21;100388.75;;;12.22;77.89
73101;BME280;61288;53.446;-2.266;2022-10-22T09:08:39;100393.53;;;12.30;78.23
73101;BME280;61288;53.446;-2.266;2022-10-22T09:13:40;100397.59;;;12.52;77.22
73101;BME280;61288;53.446;-2.266;2022-10-22T09:24:45;100391.41;;;12.70;76.71
73101;BME280;61288;53.446;-2.266;2022-10-22T09:27:13;100397.78;;;12.81;75.95
73101;BME280;61288;53.446;-2.266;2022-10-22T09:29:39;100399.03;;;12.90;76.26
73101;BME280;61288;53.446;-2.266;2022-10-22T09:32:05;100405.81;;;13.08;75.63
73101;BME280;61288;53.446;-2.266;2022-10-22T09:34:31;100406.47;;;13.28;75.84
73101;BME280;61288;53.446;-2.266;2022-10-22T09:37:03;100403.97;;;13.41;74.87
73101;BME280;61288;53.446;-2.266;2022-10-22T09:39:36;100411.97;;;13.38;74.03
73101;BME280;61288;53.446;-2.266;2022-10-22T09:42:02;100405.66;;;13.42;75.79
73101;BME280;61288;53.446;-2.266;2022-10-22T09:44:28;100418.66;;;13.42;75.39
73101;BME280;61288;53.446;-2.266;2022-10-22T09:46:54;100419.59;;;13.41;74.91
73101;BME280;61288;53.446;-2.266;2022-10-22T09:49:21;100416.34;;;13.53;74.53
73101;BME280;61288;53.446;-2.266;2022-10-22T09:51:55;100420.81;;;13.66;74.93
73101;BME280;61288;53.446;-2.266;2022-10-22T09:54:22;100423.44;;;13.66;73.84
73101;BME280;61288;53.446;-2.266;2022-10-22T09:56:56;100426.31;;;13.61;73.97
73101;BME280;61288;53.446;-2.266;2022-10-22T09:59:31;100422.84;;;13.46;74.38
73101;BME280;61288;53.446;-2.266;2022-10-22T10:01:59;100420.81;;;13.35;74.69
73101;BME280;61288;53.446;-2.266;2022-10-22T10:04:26;100426.75;;;13.37;75.04
73101;BME280;61288;53.446;-2.266;2022-10-22T10:06:53;100419.94;;;13.51;75.38
73101;BME280;61288;53.446;-2.266;2022-10-22T10:09:23;100422.69;;;13.64;75.40
73101;BME280;61288;53.446;-2.266;2022-10-22T10:12:02;100433.78;;;13.82;74.58
73101;BME280;61288;53.446;-2.266;2022-10-22T10:17:35;100435.97;;;14.04;72.90
73101;BME280;61288;53.446;-2.266;2022-10-22T10:25:56;100458.13;;;14.40;72.00
73101;BME280;61288;53.446;-2.266;2022-10-22T10:28:39;100467.38;;;14.61;72.53
73101;BME280;61288;53.446;-2.266;2022-10-22T10:37:09;100469.31;;;14.86;70.82
73101;BME280;61288;53.446;-2.266;2022-10-22T10:48:00;100493.50;;;15.17;68.32
73101;BME280;61288;53.446;-2.266;2022-10-22T10:51:06;100490.69;;;15.48;67.35
73101;BME280;61288;53.446;-2.266;2022-10-22T10:54:44;100489.25;;;15.56;67.71
73101;BME280;61288;53.446;-2.266;2022-10-22T11:01:58;100492.50;;;15.33;67.99
73101;BME280;61288;53.446;-2.266;2022-10-22T11:07:33;100491.31;;;14.82;69.99
73101;BME280;61288;53.446;-2.266;2022-10-22T11:10:39;100497.81;;;14.60;70.20
73101;BME280;61288;53.446;-2.266;2022-10-22T11:15:46;100495.09;;;14.47;70.80
73101;BME280;61288;53.446;-2.266;2022-10-22T11:18:21;100502.75;;;14.50;71.67
73101;BME280;61288;53.446;-2.266;2022-10-22T11:20:54;100495.59;;;14.54;72.07
73101;BME280;61288;53.446;-2.266;2022-10-22T11:26:08;100512.34;;;14.50;72.65
73101;BME280;61288;53.446;-2.266;2022-10-22T11:28:43;100507.88;;;14.52;71.87
73101;BME280;61288;53.446;-2.266;2022-10-22T11:31:14;100505.44;;;14.49;72.65
73101;BME280;61288;53.446;-2.266;2022-10-22T11:36:45;100513.84;;;14.54;73.38
73101;BME280;61288;53.446;-2.266;2022-10-22T11:39:49;100512.91;;;14.55;73.00
73101;BME280;61288;53.446;-2.266;2022-10-22T11:42:31;100513.72;;;14.55;72.04
73101;BME280;61288;53.446;-2.266;2022-10-22T11:45:00;100507.31;;;14.61;72.43
73101;BME280;61288;53.446;-2.266;2022-10-22T11:50:42;100508.50;;;14.55;73.63
73101;BME280;61288;53.446;-2.266;2022-10-22T11:58:26;100525.50;;;14.77;74.03
73101;BME280;61288;53.446;-2.266;2022-10-22T12:00:54;100516.81;;;14.91;73.51
73101;BME280;61288;53.446;-2.266;2022-10-22T12:06:27;100520.19;;;14.93;72.50
73101;BME280;61288;53.446;-2.266;2022-10-22T12:16:51;100519.66;;;15.15;73.19
73101;BME280;61288;53.446;-2.266;2022-10-22T12:19:29;100511.50;;;15.35;71.72
73101;BME280;61288;53.446;-2.266;2022-10-22T12:24:34;100512.16;;;15.66;72.10
73101;BME280;61288;53.446;-2.266;2022-10-22T12:27:00;100516.06;;;15.86;71.88
73101;BME280;61288;53.446;-2.266;2022-10-22T12:29:29;100508.91;;;15.90;70.63
73101;BME280;61288;53.446;-2.266;2022-10-22T12:31:55;100506.09;;;15.65;70.50
73101;BME280;61288;53.446;-2.266;2022-10-22T12:34:23;100506.78;;;15.54;71.96
73101;BME280;61288;53.446;-2.266;2022-10-22T12:36:52;100509.28;;;15.43;70.34
73101;BME280;61288;53.446;-2.266;2022-10-22T12:39:24;100493.97;;;15.37;71.63
73101;BME280;61288;53.446;-2.266;2022-10-22T12:41:52;100492.09;;;15.39;72.59
73101;BME280;61288;53.446;-2.266;2022-10-22T12:44:18;100498.78;;;15.30;71.71
73101;BME280;61288;53.446;-2.266;2022-10-22T12:46:46;100492.69;;;15.29;71.68
73101;BME280;61288;53.446;-2.266;2022-10-22T12:49:18;100491.22;;;15.25;71.62
73101;BME280;61288;53.446;-2.266;2022-10-22T12:51:46;100499.91;;;15.26;72.32
73101;BME280;61288;53.446;-2.266;2022-10-22T12:54:29;100498.31;;;15.23;72.83
73101;BME280;61288;53.446;-2.266;2022-10-22T12:56:56;100502.06;;;15.19;72.29
73101;BME280;61288;53.446;-2.266;2022-10-22T12:59:29;100496.84;;;15.19;72.65
73101;BME280;61288;53.446;-2.266;2022-10-22T13:01:57;100495.44;;;15.13;71.86
73101;BME280;61288;53.446;-2.266;2022-10-22T13:04:33;100489.03;;;15.05;72.21
73101;BME280;61288;53.446;-2.266;2022-10-22T13:09:41;100491.09;;;14.99;72.72
73101;BME280;61288;53.446;-2.266;2022-10-22T13:12:08;100491.09;;;14.99;72.81
73101;BME280;61288;53.446;-2.266;2022-10-22T13:14:42;100496.13;;;15.02;72.93
73101;BME280;61288;53.446;-2.266;2022-10-22T13:19:57;100492.75;;;15.15;72.23
73101;BME280;61288;53.446;-2.266;2022-10-22T13:22:32;100488.28;;;15.17;73.14
73101;BME280;61288;53.446;-2.266;2022-10-22T13:27:53;100496.19;;;15.15;71.83
73101;BME280;61288;53.446;-2.266;2022-10-22T13:30:26;100503.19;;;15.15;71.83
73101;BME280;61288;53.446;-2.266;2022-10-22T13:32:57;100496.09;;;15.17;72.00
73101;BME280;61288;53.446;-2.266;2022-10-22T13:35:26;100499.25;;;15.22;72.97
73101;BME280;61288;53.446;-2.266;2022-10-22T13:37:52;100508.28;;;15.31;72.22
73101;BME280;61288;53.446;-2.266;2022-10-22T13:40:18;100503.06;;;15.31;70.95
73101;BME280;61288;53.446;-2.266;2022-10-22T13:42:44;100498.81;;;15.43;70.96
73101;BME280;61288;53.446;-2.266;2022-10-22T13:45:11;100502.03;;;15.61;71.80
73101;BME280;61288;53.446;-2.266;2022-10-22T13:47:38;100502.88;;;15.74;70.79
73101;BME280;61288;53.446;-2.266;2022-10-22T13:50:14;100506.19;;;15.91;70.30
73101;BME280;61288;53.446;-2.266;2022-10-22T13:52:42;100508.13;;;15.87;69.02
73101;BME280;61288;53.446;-2.266;2022-10-22T13:55:19;100507.56;;;16.10;68.88
73101;BME280;61288;53.446;-2.266;2022-10-22T13:57:46;100510.41;;;16.33;68.97
73101;BME280;61288;53.446;-2.266;2022-10-22T14:00:19;100514.50;;;16.50;67.04
73101;BME280;61288;53.446;-2.266;2022-10-22T14:02:47;100513.44;;;16.65;67.70
73101;BME280;61288;53.446;-2.266;2022-10-22T14:05:15;100518.34;;;16.83;67.40
73101;BME280;61288;53.446;-2.266;2022-10-22T14:07:41;100513.31;;;16.93;65.63
73101;BME280;61288;53.446;-2.266;2022-10-22T14:10:18;100513.63;;;17.01;64.86
73101;BME280;61288;53.446;-2.266;2022-10-22T14:12:45;100514.25;;;16.92;65.66
73101;BME280;61288;53.446;-2.266;2022-10-22T14:15:12;100534.31;;;16.91;66.73
73101;BME280;61288;53.446;-2.266;2022-10-22T14:17:40;100528.81;;;16.83;66.91
73101;BME280;61288;53.446;-2.266;2022-10-22T14:20:13;100526.84;;;16.60;66.99
73101;BME280;61288;53.446;-2.266;2022-10-22T14:22:40;100515.66;;;16.45;67.97
73101;BME280;61288;53.446;-2.266;2022-10-22T14:25:09;100513.13;;;16.31;68.18
73101;BME280;61288;53.446;-2.266;2022-10-22T14:27:36;100509.69;;;16.30;67.46
73101;BME280;61288;53.446;-2.266;2022-10-22T14:30:03;100526.41;;;16.28;68.19
73101;BME280;61288;53.446;-2.266;2022-10-22T14:32:28;100525.03;;;16.22;67.04
73101;BME280;61288;53.446;-2.266;2022-10-22T14:34:54;100512.81;;;16.23;67.35
73101;BME280;61288;53.446;-2.266;2022-10-22T14:37:20;100529.75;;;16.30;67.27
73101;BME280;61288;53.446;-2.266;2022-10-22T14:39:46;100518.47;;;16.29;66.63
73101;BME280;61288;53.446;-2.266;2022-10-22T14:42:16;100514.28;;;16.53;66.56
73101;BME280;61288;53.446;-2.266;2022-10-22T14:44:42;100522.84;;;16.81;66.73
73101;BME280;61288;53.446;-2.266;2022-10-22T14:47:07;100515.91;;;16.93;64.45